createdAt,value
2019-02-14T00:01:15.116Z,99.90
2019-02-14T00:03:45.645Z,99.90
2019-02-14T00:06:16.121Z,99.90
2019-02-14T00:08:46.601Z,99.90
2019-02-14T00:11:17.080Z,99.90
2019-02-14T00:13:47.558Z,99.90
2019-02-14T00:16:18.027Z,99.90
2019-02-14T00:18:48.542Z,99.90
2019-02-14T00:21:19.058Z,99.90
2019-02-14T00:23:49.469Z,99.90
2019-02-14T00:26:19.998Z,99.90
2019-02-14T00:28:50.435Z,99.90
2019-02-14T00:31:20.946Z,99.90
2019-02-14T00:33:51.438Z,99.90
2019-02-14T00:36:21.955Z,99.90
2019-02-14T00:38:52.555Z,99.90
2019-02-14T00:41:22.970Z,99.90
2019-02-14T00:43:53.399Z,99.90
2019-02-14T00:46:23.956Z,99.90
2019-02-14T00:48:54.559Z,99.90
2019-02-14T00:51:25.088Z,99.90
2019-02-14T00:53:55.515Z,99.90
2019-02-14T00:56:26.146Z,99.90
2019-02-14T00:58:56.582Z,99.90
2019-02-14T01:01:27.206Z,99.90
2019-02-14T01:03:57.666Z,99.90
2019-02-14T01:06:28.240Z,99.90
2019-02-14T01:08:58.794Z,99.90
2019-02-14T01:11:29.224Z,99.90
2019-02-14T01:14:00.673Z,99.90
2019-02-14T01:16:31.119Z,99.90
2019-02-14T01:19:01.588Z,99.90
2019-02-14T01:21:32.129Z,99.90
2019-02-14T01:24:02.591Z,99.90
2019-02-14T01:26:33.114Z,99.90
2019-02-14T01:29:03.644Z,99.90
2019-02-14T01:31:34.173Z,99.90
2019-02-14T01:34:04.836Z,99.90
2019-02-14T01:36:35.486Z,99.90
2019-02-14T01:39:06.682Z,99.90
2019-02-14T01:41:37.159Z,99.90
2019-02-14T01:44:07.643Z,99.90
2019-02-14T01:46:38.374Z,99.90
2019-02-14T01:49:08.865Z,99.90
2019-02-14T01:51:39.379Z,99.90
2019-02-14T01:54:09.883Z,99.90
2019-02-14T01:56:40.598Z,99.90
2019-02-14T01:59:11.227Z,99.90
2019-02-14T02:01:41.654Z,99.90
2019-02-14T02:04:12.084Z,99.90
2019-02-14T02:06:42.506Z,99.90
2019-02-14T02:09:12.932Z,99.90
2019-02-14T02:11:43.787Z,99.90
2019-02-14T02:14:14.210Z,99.90
2019-02-14T02:16:44.666Z,99.90
2019-02-14T02:19:15.332Z,99.90
2019-02-14T02:21:45.831Z,99.90
2019-02-14T02:24:16.314Z,99.90
2019-02-14T02:26:46.746Z,99.90
2019-02-14T02:29:17.234Z,99.90
2019-02-14T02:31:47.856Z,99.90
2019-02-14T02:34:18.328Z,99.90
2019-02-14T02:36:48.806Z,99.90
2019-02-14T02:39:19.337Z,99.90
2019-02-14T02:41:49.922Z,99.90
2019-02-14T02:44:20.348Z,99.90
2019-02-14T02:46:50.773Z,99.90
2019-02-14T02:49:21.198Z,99.90
2019-02-14T02:51:51.728Z,99.90
2019-02-14T02:54:22.263Z,99.90
2019-02-14T02:56:52.891Z,99.90
2019-02-14T02:59:23.521Z,99.90
2019-02-14T03:01:53.953Z,99.90
2019-02-14T03:04:25.400Z,99.90
2019-02-14T03:06:55.827Z,99.90
2019-02-14T03:09:26.253Z,99.90
2019-02-14T03:11:56.679Z,99.90
2019-02-14T03:14:28.437Z,99.90
2019-02-14T03:16:58.872Z,99.90
2019-02-14T03:19:29.291Z,99.90
2019-02-14T03:21:59.719Z,99.90
2019-02-14T03:24:31.215Z,99.90
2019-02-14T03:27:01.699Z,99.90
2019-02-14T03:29:32.435Z,99.90
2019-02-14T03:32:02.884Z,99.90
2019-02-14T03:34:33.287Z,99.90
2019-02-14T03:37:03.759Z,99.90
2019-02-14T03:39:34.296Z,99.90
2019-02-14T03:42:04.773Z,99.90
2019-02-14T03:44:35.406Z,99.90
2019-02-14T03:47:05.842Z,99.90
2019-02-14T03:49:36.259Z,99.90
2019-02-14T03:52:06.780Z,99.90
2019-02-14T03:54:37.266Z,99.90
2019-02-14T03:57:07.744Z,99.90
2019-02-14T03:59:38.220Z,99.90
2019-02-14T04:02:08.701Z,99.90
2019-02-14T04:04:39.127Z,99.90
2019-02-14T04:07:09.555Z,99.90
2019-02-14T04:09:39.981Z,99.90
2019-02-14T04:12:10.538Z,99.90
2019-02-14T04:14:40.976Z,99.90
2019-02-14T04:17:11.539Z,99.90
2019-02-14T04:19:41.999Z,99.90
2019-02-14T04:22:12.423Z,99.90
2019-02-14T04:24:42.851Z,99.90
2019-02-14T04:27:13.359Z,99.90
2019-02-14T04:29:43.812Z,99.90
2019-02-14T04:32:15.263Z,99.90
2019-02-14T04:34:45.864Z,99.90
2019-02-14T04:37:16.323Z,99.90
2019-02-14T04:39:46.787Z,99.90
2019-02-14T04:42:17.461Z,99.90
2019-02-14T04:44:47.916Z,99.90
2019-02-14T04:47:18.334Z,99.90
2019-02-14T04:49:48.768Z,99.90
2019-02-14T04:52:19.296Z,99.90
2019-02-14T04:54:49.753Z,99.90
2019-02-14T04:57:20.679Z,99.90
2019-02-14T04:59:51.188Z,99.90
2019-02-14T05:02:21.615Z,99.90
2019-02-14T05:04:52.043Z,99.90
2019-02-14T05:07:22.465Z,99.90
2019-02-14T05:09:52.894Z,99.90
2019-02-14T05:12:26.168Z,99.90
2019-02-14T05:14:56.727Z,99.90
2019-02-14T05:17:27.147Z,99.90
2019-02-14T05:19:57.576Z,99.90
2019-02-14T05:22:28.100Z,99.90
2019-02-14T05:24:58.833Z,99.90
2019-02-14T05:27:29.282Z,99.90
2019-02-14T05:29:59.746Z,99.90
2019-02-14T05:32:30.319Z,99.90
2019-02-14T05:35:00.771Z,99.90
2019-02-14T05:37:31.483Z,99.90
2019-02-14T05:40:01.876Z,99.90
2019-02-14T05:42:32.491Z,99.90
2019-02-14T05:45:02.965Z,99.90
2019-02-14T05:47:33.394Z,99.90
2019-02-14T05:50:03.822Z,99.90
2019-02-14T05:52:34.247Z,99.90
2019-02-14T05:55:04.950Z,99.90
2019-02-14T05:57:35.722Z,99.90
2019-02-14T06:00:06.808Z,99.90
2019-02-14T06:02:37.606Z,99.90
2019-02-14T06:05:08.225Z,99.90
2019-02-14T06:07:38.735Z,99.90
2019-02-14T06:10:09.510Z,99.90
2019-02-14T06:12:40.018Z,99.90
2019-02-14T06:15:10.957Z,99.90
2019-02-14T06:17:41.386Z,99.90
2019-02-14T06:20:12.020Z,99.90
2019-02-14T06:22:42.549Z,99.90
2019-02-14T06:25:13.135Z,99.90
2019-02-14T06:27:43.810Z,99.90
2019-02-14T06:30:14.747Z,99.90
2019-02-14T06:32:46.201Z,99.90
2019-02-14T06:35:16.674Z,99.90
2019-02-14T06:37:47.156Z,99.90
2019-02-14T06:40:17.633Z,99.90
2019-02-14T06:42:48.258Z,99.90
2019-02-14T06:45:18.647Z,99.90
2019-02-14T06:47:49.067Z,99.90
2019-02-14T06:50:19.495Z,99.90
2019-02-14T06:52:50.947Z,99.90
2019-02-14T06:55:21.378Z,99.90
2019-02-14T06:57:52.004Z,99.90
2019-02-14T07:00:22.430Z,99.90
2019-02-14T07:02:52.867Z,99.90
2019-02-14T07:05:23.438Z,99.90
2019-02-14T07:07:53.858Z,99.90
2019-02-14T07:10:24.480Z,99.90
2019-02-14T07:12:55.046Z,99.90
2019-02-14T07:15:25.567Z,99.90
2019-02-14T07:17:56.051Z,99.90
2019-02-14T07:20:26.469Z,99.90
2019-02-14T07:22:57.046Z,99.90
2019-02-14T07:25:27.630Z,99.90
2019-02-14T07:27:58.066Z,99.90
2019-02-14T07:30:28.627Z,99.90
2019-02-14T07:32:59.119Z,99.90
2019-02-14T07:35:29.638Z,99.90
2019-02-14T07:38:00.362Z,99.90
2019-02-14T07:40:30.844Z,99.90
2019-02-14T07:43:01.475Z,99.90
2019-02-14T07:45:32.015Z,99.90
2019-02-14T07:48:02.490Z,99.90
2019-02-14T07:50:33.122Z,99.90
2019-02-14T07:53:03.583Z,99.90
2019-02-14T07:55:34.150Z,99.90
2019-02-14T07:58:04.811Z,99.90
2019-02-14T08:00:35.341Z,99.90
2019-02-14T08:03:05.878Z,99.90
2019-02-14T08:05:36.266Z,99.90
2019-02-14T08:08:06.779Z,99.90
2019-02-14T08:10:37.331Z,99.90
2019-02-14T08:13:07.809Z,99.90
2019-02-14T08:15:38.209Z,99.90
2019-02-14T08:18:10.175Z,99.90
2019-02-14T08:20:40.670Z,99.90
2019-02-14T08:23:11.141Z,99.90
2019-02-14T08:25:41.557Z,99.90
2019-02-14T08:28:11.983Z,99.90
2019-02-14T08:30:42.410Z,99.90
2019-02-14T08:33:12.842Z,99.90
2019-02-14T08:35:43.266Z,99.90
2019-02-14T08:38:13.696Z,99.90
2019-02-14T08:40:44.171Z,99.90
2019-02-14T08:43:14.691Z,99.90
2019-02-14T08:45:45.179Z,99.90
2019-02-14T08:48:15.677Z,99.90
2019-02-14T08:50:46.174Z,99.90
2019-02-14T08:53:16.664Z,99.90
2019-02-14T08:55:47.194Z,99.90
2019-02-14T08:58:17.927Z,99.90
2019-02-14T09:00:48.359Z,99.90
2019-02-14T09:03:19.881Z,99.90
2019-02-14T09:05:50.437Z,99.90
2019-02-14T09:08:20.864Z,99.90
2019-02-14T09:10:51.340Z,99.90
2019-02-14T09:13:21.819Z,99.90
2019-02-14T09:15:52.248Z,99.90
2019-02-14T09:18:22.880Z,98.20
2019-02-14T09:20:53.313Z,92.90
2019-02-14T09:23:24.762Z,85.30
2019-02-14T09:25:55.188Z,77.40
2019-02-14T09:28:25.611Z,73.10
2019-02-14T09:30:56.040Z,74.40
2019-02-14T09:33:27.796Z,75.10
2019-02-14T09:35:58.363Z,79.50
2019-02-14T09:38:28.957Z,73.90
2019-02-14T09:40:59.427Z,68.20
2019-02-14T09:43:30.255Z,62.10
2019-02-14T09:46:00.765Z,55.00
2019-02-14T09:48:31.366Z,49.60
2019-02-14T09:51:01.863Z,44.90
2019-02-14T09:53:32.421Z,41.40
2019-02-14T09:56:02.872Z,39.80
2019-02-14T09:58:33.498Z,36.30
2019-02-14T10:01:04.043Z,34.70
2019-02-14T10:03:34.589Z,33.40
2019-02-14T10:06:05.117Z,35.10
2019-02-14T10:08:35.519Z,36.70
2019-02-14T10:11:05.945Z,36.80
2019-02-14T10:13:37.548Z,36.40
2019-02-14T10:16:08.023Z,36.30
2019-02-14T10:18:38.659Z,36.90
2019-02-14T10:21:08.996Z,36.20
2019-02-14T10:23:39.509Z,36.30
2019-02-14T10:26:10.047Z,34.70
2019-02-14T10:28:40.470Z,35.30
2019-02-14T10:31:10.895Z,34.70
2019-02-14T10:33:41.436Z,34.80
2019-02-14T10:36:11.864Z,33.30
2019-02-14T10:38:42.483Z,32.80
2019-02-14T10:41:13.102Z,32.80
2019-02-14T10:43:48.798Z,34.20
2019-02-14T10:46:15.711Z,33.10
2019-02-14T10:48:46.442Z,33.30
2019-02-14T10:51:17.002Z,31.70
2019-02-14T10:53:47.811Z,31.30
2019-02-14T10:56:18.242Z,32.10
2019-02-14T10:58:48.867Z,31.40
2019-02-14T11:01:19.320Z,29.70
2019-02-14T11:03:49.926Z,29.80
2019-02-14T11:06:20.360Z,29.50
2019-02-14T11:08:50.777Z,28.60
2019-02-14T11:11:21.206Z,29.40
2019-02-14T11:13:52.656Z,29.30
2019-02-14T11:16:23.137Z,27.90
2019-02-14T11:18:53.639Z,28.50
2019-02-14T11:21:24.151Z,28.60
2019-02-14T11:23:54.742Z,29.20
2019-02-14T11:26:25.210Z,28.40
2019-02-14T11:28:56.978Z,28.60
2019-02-14T11:31:27.395Z,29.20
2019-02-14T11:33:58.027Z,28.90
2019-02-14T11:36:28.490Z,26.80
2019-02-14T11:38:58.974Z,24.80
2019-02-14T11:41:29.448Z,24.60
2019-02-14T11:44:00.240Z,26.20
2019-02-14T11:46:30.973Z,28.00
2019-02-14T11:49:01.573Z,29.20
2019-02-14T11:51:32.070Z,27.80
2019-02-14T11:54:02.733Z,27.50
2019-02-14T11:56:33.200Z,26.60
2019-02-14T11:59:03.824Z,26.80
2019-02-14T12:01:34.255Z,25.80
2019-02-14T12:04:04.746Z,26.30
2019-02-14T12:06:35.309Z,26.10
2019-02-14T12:09:07.558Z,25.60
2019-02-14T12:11:38.007Z,25.40
2019-02-14T12:14:09.459Z,26.30
2019-02-14T12:16:39.884Z,24.50
2019-02-14T12:19:10.361Z,25.10
2019-02-14T12:21:40.783Z,25.20
2019-02-14T12:24:11.275Z,25.40
2019-02-14T12:26:41.696Z,25.30
2019-02-14T12:29:12.126Z,25.00
2019-02-14T12:31:42.554Z,25.00
2019-02-14T12:34:12.977Z,24.90
2019-02-14T12:36:43.443Z,25.50
2019-02-14T12:39:14.004Z,25.60
2019-02-14T12:41:44.512Z,25.70
2019-02-14T12:44:15.103Z,25.00
2019-02-14T12:46:45.523Z,26.20
2019-02-14T12:49:16.357Z,25.80
2019-02-14T12:51:46.816Z,24.90
2019-02-14T12:54:17.315Z,25.70
2019-02-14T12:56:50.814Z,25.60
2019-02-14T12:59:21.450Z,26.00
2019-02-14T13:01:51.871Z,26.90
2019-02-14T13:04:23.320Z,27.20
2019-02-14T13:06:53.851Z,27.70
2019-02-14T13:09:24.408Z,28.60
2019-02-14T13:11:55.013Z,28.30
2019-02-14T13:14:25.441Z,28.40
2019-02-14T13:16:55.868Z,27.90
2019-02-14T13:19:26.294Z,27.50
2019-02-14T13:21:57.028Z,27.50
2019-02-14T13:24:27.497Z,28.70
2019-02-14T13:26:58.055Z,27.80
2019-02-14T13:29:28.514Z,27.50
2019-02-14T13:31:58.940Z,27.70
2019-02-14T13:34:29.370Z,27.40
2019-02-14T13:37:02.102Z,27.90
2019-02-14T13:39:32.689Z,28.20
2019-02-14T13:42:03.397Z,27.00
2019-02-14T13:44:33.916Z,26.80
2019-02-14T13:47:04.369Z,26.60
2019-02-14T13:49:34.795Z,26.80
2019-02-14T13:52:05.329Z,27.10
2019-02-14T13:54:35.720Z,27.20
2019-02-14T13:57:06.492Z,26.80
2019-02-14T13:59:36.915Z,26.20
2019-02-14T14:02:07.446Z,25.50
2019-02-14T14:04:37.859Z,26.50
2019-02-14T14:07:08.363Z,26.40
2019-02-14T14:09:39.074Z,26.20
2019-02-14T14:12:09.554Z,26.80
2019-02-14T14:14:39.980Z,27.00
2019-02-14T14:17:10.423Z,26.70
2019-02-14T14:19:40.919Z,27.00
2019-02-14T14:22:11.473Z,27.30
2019-02-14T14:24:42.002Z,27.20
2019-02-14T14:27:12.460Z,26.20
2019-02-14T14:29:42.958Z,24.90
2019-02-14T14:32:13.696Z,25.10
2019-02-14T14:34:44.214Z,24.90
2019-02-14T14:37:14.658Z,25.20
2019-02-14T14:39:47.714Z,24.70
2019-02-14T14:42:52.382Z,25.50
2019-02-14T14:45:35.799Z,25.10
2019-02-14T14:48:06.226Z,24.90
2019-02-14T14:50:36.655Z,24.90
2019-02-14T14:53:08.132Z,24.50
2019-02-14T14:55:38.793Z,24.20
2019-02-14T14:58:09.272Z,23.80
2019-02-14T15:00:40.000Z,23.60
2019-02-14T15:03:11.456Z,23.50
2019-02-14T15:05:41.980Z,24.90
2019-02-14T15:08:12.515Z,25.30
2019-02-14T15:10:43.022Z,26.60
2019-02-14T15:13:13.466Z,27.10
2019-02-14T15:15:44.098Z,27.90
2019-02-14T15:18:14.729Z,27.30
2019-02-14T15:20:45.223Z,26.80
2019-02-14T15:23:15.738Z,26.40
2019-02-14T15:25:46.215Z,26.60
2019-02-14T15:28:16.721Z,26.20
2019-02-14T15:30:47.173Z,25.90
2019-02-14T15:33:17.598Z,26.50
2019-02-14T15:35:48.027Z,27.30
2019-02-14T15:38:18.481Z,26.80
2019-02-14T15:40:48.879Z,26.40
2019-02-14T15:43:19.307Z,26.30
2019-02-14T15:45:49.774Z,27.10
2019-02-14T15:48:20.293Z,28.00
2019-02-14T15:50:51.473Z,29.00
2019-02-14T15:53:23.887Z,29.10
2019-02-14T15:55:54.315Z,29.70
2019-02-14T15:58:25.109Z,31.80
2019-02-14T16:00:55.699Z,31.70
2019-02-14T16:03:26.481Z,31.50
2019-02-14T16:05:56.938Z,30.50
2019-02-14T16:08:27.389Z,29.70
2019-02-14T16:10:57.782Z,31.30
2019-02-14T16:13:29.201Z,31.50
2019-02-14T16:16:00.590Z,31.90
2019-02-14T16:18:31.500Z,32.40
2019-02-14T16:21:03.530Z,33.70
2019-02-14T16:23:34.339Z,34.80
2019-02-14T16:26:04.867Z,34.30
2019-02-14T16:28:36.136Z,34.10
2019-02-14T16:31:07.461Z,35.60
2019-02-14T16:33:38.947Z,37.10
2019-02-14T16:36:09.539Z,38.50
2019-02-14T16:38:39.967Z,39.10
2019-02-14T16:41:10.288Z,38.90
2019-02-14T16:43:40.682Z,39.20
2019-02-14T16:46:11.221Z,39.10
2019-02-14T16:48:41.670Z,40.40
2019-02-14T16:51:12.098Z,42.90
2019-02-14T16:53:42.630Z,46.20
2019-02-14T16:56:13.360Z,49.30
2019-02-14T16:58:43.912Z,52.50
2019-02-14T17:01:14.318Z,55.30
2019-02-14T17:03:44.999Z,58.80
2019-02-14T17:06:15.403Z,62.00
2019-02-14T17:08:45.807Z,66.50
2019-02-14T17:11:16.486Z,69.80
2019-02-14T17:13:46.968Z,74.70
2019-02-14T17:16:17.391Z,78.70
2019-02-14T17:18:47.818Z,82.70
2019-02-14T17:21:18.315Z,87.10
2019-02-14T17:23:48.951Z,90.40
2019-02-14T17:26:19.421Z,91.90
2019-02-14T17:28:50.040Z,93.10
2019-02-14T17:31:20.470Z,94.00
2019-02-14T17:33:51.927Z,95.30
2019-02-14T17:36:22.430Z,96.40
2019-02-14T17:38:52.802Z,97.10
2019-02-14T17:41:23.229Z,97.80
2019-02-14T17:43:53.740Z,98.40
2019-02-14T17:46:24.198Z,98.90
2019-02-14T17:48:54.736Z,99.50
2019-02-14T17:51:25.215Z,99.90
2019-02-14T17:53:57.223Z,99.90
2019-02-14T17:56:27.751Z,99.90
2019-02-14T17:58:58.272Z,99.90
2019-02-14T18:01:28.762Z,99.90
2019-02-14T18:03:59.400Z,99.90
2019-02-14T18:06:30.142Z,99.90
2019-02-14T18:09:00.840Z,99.90
2019-02-14T18:11:31.259Z,99.90
2019-02-14T18:14:01.724Z,99.90
2019-02-14T18:16:32.144Z,99.90
2019-02-14T18:19:02.784Z,99.90
2019-02-14T18:21:33.412Z,99.90
2019-02-14T18:24:04.142Z,99.90
2019-02-14T18:26:34.482Z,99.90
2019-02-14T18:29:05.367Z,99.90
2019-02-14T18:31:35.906Z,99.90
2019-02-14T18:34:06.361Z,99.90
2019-02-14T18:36:36.788Z,99.90
2019-02-14T18:39:08.751Z,99.90
2019-02-14T18:41:39.294Z,99.90
2019-02-14T18:44:09.819Z,99.90
2019-02-14T18:46:40.283Z,99.90
2019-02-14T18:49:10.816Z,99.90
2019-02-14T18:51:41.400Z,99.90
2019-02-14T18:54:12.859Z,99.90
2019-02-14T18:56:43.558Z,99.90
2019-02-14T18:59:14.023Z,99.90
2019-02-14T19:01:44.747Z,99.90
2019-02-14T19:04:15.379Z,99.90
2019-02-14T19:06:45.807Z,99.90
2019-02-14T19:09:16.434Z,99.90
2019-02-14T19:11:47.171Z,99.90
2019-02-14T19:14:40.336Z,99.90
2019-02-14T19:17:10.728Z,99.90
2019-02-14T19:19:41.186Z,99.90
2019-02-14T19:22:11.614Z,99.90
2019-02-14T19:24:42.045Z,99.90
2019-02-14T19:27:12.464Z,99.90
2019-02-14T19:29:42.907Z,99.90
2019-02-14T19:32:14.594Z,99.90
2019-02-14T19:34:45.211Z,99.90
2019-02-14T19:37:15.821Z,99.90
2019-02-14T19:39:46.403Z,99.90
2019-02-14T19:42:16.883Z,99.90
2019-02-14T19:44:47.371Z,99.90
2019-02-14T19:47:17.929Z,99.90
2019-02-14T19:49:48.407Z,99.90
2019-02-14T19:52:18.895Z,99.90
2019-02-14T19:54:49.317Z,99.90
2019-02-14T19:57:19.741Z,99.90
2019-02-14T19:59:50.244Z,99.90
2019-02-14T20:02:20.739Z,99.90
2019-02-14T20:04:52.296Z,99.90
2019-02-14T20:07:22.881Z,99.90
2019-02-14T20:09:53.307Z,99.90
2019-02-14T20:12:23.797Z,99.90
2019-02-14T20:14:54.310Z,99.90
2019-02-14T20:17:24.822Z,99.90
2019-02-14T20:19:55.425Z,99.90
2019-02-14T20:22:25.851Z,99.90
2019-02-14T20:24:56.962Z,99.90
2019-02-14T20:27:27.429Z,99.90
2019-02-14T20:29:57.923Z,99.90
2019-02-14T20:32:28.450Z,99.90
2019-02-14T20:35:01.658Z,99.90
2019-02-14T20:37:31.351Z,99.90
2019-02-14T20:40:02.110Z,99.90
2019-02-14T20:42:33.088Z,99.90
2019-02-14T20:45:04.068Z,99.90
2019-02-14T20:47:35.345Z,99.90
2019-02-14T20:50:06.528Z,99.90
2019-02-14T20:52:37.460Z,99.90
2019-02-14T20:55:10.121Z,99.90
2019-02-14T20:57:40.553Z,99.90
2019-02-14T21:00:30.625Z,99.90
2019-02-14T21:03:01.382Z,99.90
2019-02-14T21:05:33.213Z,99.90
2019-02-14T21:08:03.875Z,99.90
2019-02-14T21:10:34.688Z,99.90
2019-02-14T21:13:05.314Z,99.90
2019-02-14T21:15:35.872Z,99.90
2019-02-14T21:18:06.672Z,99.90
2019-02-14T21:20:42.575Z,99.90
2019-02-14T21:23:13.646Z,99.90
2019-02-14T21:25:44.220Z,99.90
2019-02-14T21:28:14.695Z,99.90
2019-02-14T21:30:45.288Z,99.90
2019-02-14T21:33:15.749Z,99.90
2019-02-14T21:35:46.399Z,99.90
2019-02-14T21:38:16.969Z,99.90
2019-02-14T21:40:47.539Z,99.90
2019-02-14T21:43:18.203Z,99.90
2019-02-14T21:45:48.727Z,99.90
2019-02-14T21:48:19.903Z,99.90
2019-02-14T21:50:50.554Z,99.90
2019-02-14T21:53:21.109Z,99.90
2019-02-14T21:55:51.621Z,99.90
2019-02-14T21:58:22.244Z,99.90
2019-02-14T22:00:52.781Z,99.90
2019-02-14T22:03:23.484Z,99.90
2019-02-14T22:05:54.188Z,99.90
2019-02-14T22:08:24.776Z,99.90
2019-02-14T22:10:55.204Z,99.90
2019-02-14T22:13:50.559Z,99.90
2019-02-14T22:16:21.287Z,99.90
2019-02-14T22:18:51.763Z,99.90
2019-02-14T22:21:22.189Z,99.90
2019-02-14T22:23:52.819Z,99.90
2019-02-14T22:26:23.136Z,99.90
2019-02-14T22:28:53.674Z,99.90
2019-02-14T22:31:24.093Z,99.90
2019-02-14T22:33:54.635Z,99.90
2019-02-14T22:36:25.055Z,99.90
2019-02-14T22:38:55.466Z,99.90
2019-02-14T22:41:25.895Z,99.90
2019-02-14T22:43:57.378Z,99.90
2019-02-14T22:46:27.786Z,99.90
2019-02-14T22:48:58.242Z,99.90
2019-02-14T22:51:28.803Z,99.90
2019-02-14T22:54:00.180Z,99.90
2019-02-14T22:56:30.608Z,99.90
2019-02-14T22:59:01.035Z,99.90
2019-02-14T23:01:31.465Z,99.90
2019-02-14T23:04:01.888Z,99.90
2019-02-14T23:06:34.671Z,99.90
2019-02-14T23:09:06.534Z,99.90
2019-02-14T23:11:36.967Z,99.90
2019-02-14T23:14:07.487Z,99.90
2019-02-14T23:16:37.916Z,99.90
2019-02-14T23:19:08.392Z,99.90
2019-02-14T23:21:38.884Z,99.90
2019-02-14T23:24:09.400Z,99.90
2019-02-14T23:26:39.825Z,99.90
2019-02-14T23:29:10.252Z,99.90
2019-02-14T23:31:40.678Z,99.90
2019-02-14T23:34:11.113Z,99.90
2019-02-14T23:36:41.535Z,99.90
2019-02-14T23:39:12.337Z,99.90
2019-02-14T23:41:42.799Z,99.90
2019-02-14T23:44:14.251Z,99.90
2019-02-14T23:46:44.675Z,99.90
2019-02-14T23:49:15.130Z,99.90
2019-02-14T23:51:45.679Z,99.90
2019-02-14T23:54:16.164Z,99.90
2019-02-14T23:56:46.588Z,99.90
2019-02-14T23:59:17.188Z,99.90
